createdAt,value
2022-09-25T00:00:55.325Z,100849.81
2022-09-25T00:03:24.020Z,100847.13
2022-09-25T00:05:52.370Z,100842.81
2022-09-25T00:08:20.733Z,100847.25
2022-09-25T00:10:50.111Z,100840.09
2022-09-25T00:13:19.029Z,100839.22
2022-09-25T00:15:49.185Z,100838.31
2022-09-25T00:18:17.495Z,100834.13
2022-09-25T00:20:43.935Z,100840.28
2022-09-25T00:23:11.323Z,100830.66
2022-09-25T00:25:39.605Z,100827.22
2022-09-25T00:28:07.030Z,100829.66
2022-09-25T00:30:34.466Z,100825.31
2022-09-25T00:33:03.232Z,100823.81
2022-09-25T00:35:30.632Z,100812.44
2022-09-25T00:37:58.030Z,100816.72
2022-09-25T00:40:25.472Z,100809.63
2022-09-25T00:42:52.928Z,100814.81
2022-09-25T00:45:21.607Z,100814.06
2022-09-25T00:48:00.279Z,100815.38
2022-09-25T00:50:37.196Z,100807.44
2022-09-25T00:53:10.143Z,100804.13
2022-09-25T00:55:40.758Z,100811.28
2022-09-25T00:58:09.198Z,100806.84
2022-09-25T01:00:36.720Z,100812.94
2022-09-25T01:03:06.000Z,100799.81
2022-09-25T01:05:36.979Z,100808.50
2022-09-25T01:08:06.891Z,100808.75
2022-09-25T01:10:34.514Z,100803.31
2022-09-25T01:13:02.135Z,100801.38
2022-09-25T01:15:37.276Z,100805.72
2022-09-25T01:18:17.152Z,100803.69
2022-09-25T01:21:11.549Z,100812.22
2022-09-25T01:23:57.366Z,100802.72
2022-09-25T01:26:44.941Z,100798.06
2022-09-25T01:29:18.433Z,100793.09
2022-09-25T01:31:53.128Z,100796.91
2022-09-25T01:34:27.358Z,100800.06
2022-09-25T01:37:00.865Z,100798.31
2022-09-25T01:39:32.847Z,100801.97
2022-09-25T01:42:06.929Z,100800.13
2022-09-25T01:44:39.764Z,100796.44
2022-09-25T01:47:11.678Z,100801.91
2022-09-25T01:49:44.644Z,100796.06
2022-09-25T01:52:16.162Z,100794.47
2022-09-25T01:54:47.059Z,100797.09
2022-09-25T01:57:20.703Z,100795.19
2022-09-25T01:59:54.690Z,100793.19
2022-09-25T02:02:27.407Z,100790.53
2022-09-25T02:04:59.618Z,100781.69
2022-09-25T02:07:32.149Z,100790.31
2022-09-25T02:10:06.180Z,100780.66
2022-09-25T02:12:40.911Z,100779.00
2022-09-25T02:15:14.539Z,100782.47
2022-09-25T02:18:07.403Z,100774.81
2022-09-25T02:20:41.891Z,100783.56
2022-09-25T02:23:18.767Z,100772.19
2022-09-25T02:25:56.352Z,100782.72
2022-09-25T02:28:24.085Z,100787.16
2022-09-25T02:30:57.650Z,100777.41
2022-09-25T02:33:26.366Z,100777.28
2022-09-25T02:35:53.923Z,100781.88
2022-09-25T02:38:22.534Z,100779.84
2022-09-25T02:40:55.790Z,100772.97
2022-09-25T02:43:39.363Z,100775.50
2022-09-25T02:46:14.909Z,100773.94
2022-09-25T02:48:51.189Z,100776.41
2022-09-25T02:51:26.876Z,100769.16
2022-09-25T02:54:02.924Z,100771.06
2022-09-25T02:56:34.931Z,100775.50
2022-09-25T02:59:05.287Z,100778.31
2022-09-25T03:01:35.697Z,100780.91
2022-09-25T03:04:06.075Z,100777.97
2022-09-25T03:06:33.737Z,100763.28
2022-09-25T03:09:02.330Z,100771.03
2022-09-25T03:11:30.012Z,100772.81
2022-09-25T03:13:59.387Z,100773.75
2022-09-25T03:16:35.014Z,100770.19
2022-09-25T03:19:04.821Z,100771.31
2022-09-25T03:21:32.835Z,100773.03
2022-09-25T03:24:00.449Z,100775.81
2022-09-25T03:26:28.644Z,100768.72
2022-09-25T03:28:56.131Z,100766.97
2022-09-25T03:31:23.970Z,100769.41
2022-09-25T03:33:51.427Z,100761.63
2022-09-25T03:36:21.701Z,100765.19
2022-09-25T03:38:51.288Z,100765.09
2022-09-25T03:41:21.142Z,100771.19
2022-09-25T03:43:51.742Z,100768.69
2022-09-25T03:46:20.809Z,100766.88
2022-09-25T03:48:48.722Z,100764.34
2022-09-25T03:51:16.407Z,100763.44
2022-09-25T03:53:45.656Z,100766.00
2022-09-25T03:56:15.228Z,100754.75
2022-09-25T03:58:42.776Z,100757.31
2022-09-25T04:01:11.159Z,100760.19
2022-09-25T04:03:39.327Z,100757.34
2022-09-25T04:06:10.031Z,100757.50
2022-09-25T04:08:38.109Z,100757.38
2022-09-25T04:11:07.243Z,100756.88
2022-09-25T04:13:37.296Z,100750.56
2022-09-25T04:16:08.291Z,100756.53
2022-09-25T04:18:36.215Z,100747.94
2022-09-25T04:21:07.398Z,100757.53
2022-09-25T04:23:35.374Z,100756.88
2022-09-25T04:26:03.001Z,100754.22
2022-09-25T04:28:32.839Z,100760.22
2022-09-25T04:31:01.967Z,100767.22
2022-09-25T04:33:47.864Z,100761.44
2022-09-25T04:36:15.939Z,100758.72
2022-09-25T04:38:43.938Z,100753.38
2022-09-25T04:41:11.495Z,100743.75
2022-09-25T04:43:40.904Z,100748.16
2022-09-25T04:46:10.522Z,100756.94
2022-09-25T04:48:38.287Z,100750.88
2022-09-25T04:51:06.592Z,100755.88
2022-09-25T04:53:35.946Z,100750.75
2022-09-25T04:56:12.214Z,100760.19
2022-09-25T04:58:45.269Z,100756.72
2022-09-25T05:01:13.715Z,100758.41
2022-09-25T05:03:41.358Z,100755.84
2022-09-25T05:06:08.981Z,100761.28
2022-09-25T05:08:36.481Z,100756.94
2022-09-25T05:11:03.948Z,100762.25
2022-09-25T05:13:31.538Z,100755.38
2022-09-25T05:16:00.440Z,100757.00
2022-09-25T05:18:27.969Z,100763.91
2022-09-25T05:20:55.377Z,100749.31
2022-09-25T05:23:23.783Z,100758.81
2022-09-25T05:25:55.121Z,100757.97
2022-09-25T05:28:23.544Z,100756.25
2022-09-25T05:30:51.741Z,100769.03
2022-09-25T05:33:20.908Z,100770.75
2022-09-25T05:35:49.386Z,100775.88
2022-09-25T05:38:16.819Z,100772.53
2022-09-25T05:40:44.351Z,100778.69
2022-09-25T05:43:12.484Z,100777.72
2022-09-25T05:45:39.917Z,100775.97
2022-09-25T05:48:09.232Z,100774.25
2022-09-25T05:50:37.989Z,100775.97
2022-09-25T05:53:06.584Z,100769.97
2022-09-25T05:55:34.039Z,100766.44
2022-09-25T05:58:02.589Z,100760.38
2022-09-25T06:00:32.684Z,100762.88
2022-09-25T06:03:00.570Z,100763.81
2022-09-25T06:05:28.025Z,100774.09
2022-09-25T06:07:56.960Z,100773.03
2022-09-25T06:10:26.860Z,100775.69
2022-09-25T06:12:58.609Z,100770.22
2022-09-25T06:15:27.863Z,100770.31
2022-09-25T06:17:55.472Z,100767.69
2022-09-25T06:20:23.229Z,100770.25
2022-09-25T06:22:54.526Z,100763.22
2022-09-25T06:25:25.885Z,100774.63
2022-09-25T06:27:53.888Z,100773.63
2022-09-25T06:30:21.987Z,100776.91
2022-09-25T06:32:50.978Z,100777.03
2022-09-25T06:35:18.553Z,100766.56
2022-09-25T06:37:45.910Z,100780.47
2022-09-25T06:40:13.315Z,100775.97
2022-09-25T06:42:42.212Z,100775.34
2022-09-25T06:45:11.660Z,100778.56
2022-09-25T06:47:39.051Z,100768.13
2022-09-25T06:50:07.744Z,100769.03
2022-09-25T06:52:41.845Z,100768.16
2022-09-25T06:55:09.370Z,100767.84
2022-09-25T06:57:38.076Z,100772.47
2022-09-25T07:00:07.982Z,100763.59
2022-09-25T07:02:52.869Z,100774.78
2022-09-25T07:05:20.328Z,100777.47
2022-09-25T07:07:48.535Z,100767.06
2022-09-25T07:10:16.135Z,100774.81
2022-09-25T07:12:43.595Z,100774.88
2022-09-25T07:15:12.552Z,100771.38
2022-09-25T07:17:42.999Z,100762.72
2022-09-25T07:20:12.602Z,100761.06
2022-09-25T07:22:40.254Z,100762.78
2022-09-25T07:25:09.280Z,100758.19
2022-09-25T07:27:37.139Z,100764.09
2022-09-25T07:30:05.584Z,100762.16
2022-09-25T07:32:34.596Z,100759.19
2022-09-25T07:35:02.459Z,100755.38
2022-09-25T07:37:30.165Z,100756.31
2022-09-25T07:39:57.544Z,100763.13
2022-09-25T07:42:24.944Z,100764.97
2022-09-25T07:44:52.871Z,100767.53
2022-09-25T07:47:20.565Z,100769.06
2022-09-25T07:49:49.688Z,100770.38
2022-09-25T07:52:17.069Z,100775.34
2022-09-25T07:54:44.518Z,100770.09
2022-09-25T07:57:13.149Z,100768.97
2022-09-25T07:59:40.555Z,100763.41
2022-09-25T08:02:08.225Z,100766.97
2022-09-25T08:04:35.771Z,100759.22
2022-09-25T08:07:04.659Z,100751.16
2022-09-25T08:09:32.125Z,100747.59
2022-09-25T08:11:59.551Z,100745.13
2022-09-25T08:14:27.293Z,100745.84
2022-09-25T08:16:55.921Z,100743.75
2022-09-25T08:19:24.066Z,100742.56
2022-09-25T08:21:51.755Z,100741.31
2022-09-25T08:24:20.526Z,100736.44
2022-09-25T08:26:47.956Z,100736.50
2022-09-25T08:29:15.329Z,100742.44
2022-09-25T08:31:43.602Z,100744.41
2022-09-25T08:34:39.031Z,100743.47
2022-09-25T08:36:58.971Z,100738.47
2022-09-25T08:39:27.931Z,100742.50
2022-09-25T08:41:56.738Z,100738.22
2022-09-25T08:44:27.989Z,100732.47
2022-09-25T08:47:19.481Z,100731.09
2022-09-25T08:49:52.195Z,100735.03
2022-09-25T08:52:22.803Z,100736.47
2022-09-25T08:54:52.300Z,100739.69
2022-09-25T08:57:29.012Z,100731.19
2022-09-25T09:00:02.946Z,100740.50
2022-09-25T09:02:39.216Z,100736.13
2022-09-25T09:05:14.940Z,100733.53
2022-09-25T09:07:45.508Z,100728.31
2022-09-25T09:10:25.383Z,100726.25
2022-09-25T09:12:58.671Z,100726.03
2022-09-25T09:15:33.359Z,100719.09
2022-09-25T09:18:06.961Z,100727.25
2022-09-25T09:20:43.964Z,100721.69
2022-09-25T09:23:18.647Z,100720.06
2022-09-25T09:25:55.646Z,100724.66
2022-09-25T09:28:44.333Z,100721.09
2022-09-25T09:31:21.415Z,100718.47
2022-09-25T09:33:58.180Z,100717.16
2022-09-25T09:36:32.856Z,100712.00
2022-09-25T09:39:09.474Z,100709.41
2022-09-25T09:41:54.778Z,100702.06
2022-09-25T09:44:41.602Z,100697.84
2022-09-25T09:47:25.670Z,100694.28
2022-09-25T09:49:56.930Z,100696.78
2022-09-25T09:52:30.724Z,100699.22
2022-09-25T09:55:03.396Z,100698.91
2022-09-25T09:57:44.733Z,100696.94
2022-09-25T10:00:16.835Z,100696.19
2022-09-25T10:02:46.743Z,100696.59
2022-09-25T10:05:27.091Z,100697.09
2022-09-25T10:07:55.143Z,100691.81
2022-09-25T10:10:26.106Z,100680.50
2022-09-25T10:12:56.010Z,100686.34
2022-09-25T10:15:30.918Z,100687.34
2022-09-25T10:18:00.476Z,100681.03
2022-09-25T10:20:34.460Z,100682.59
2022-09-25T10:23:05.251Z,100686.09
2022-09-25T10:25:38.176Z,100685.31
2022-09-25T10:28:30.420Z,100682.25
2022-09-25T10:30:59.807Z,100677.41
2022-09-25T10:33:28.989Z,100676.50
2022-09-25T10:35:56.414Z,100671.25
2022-09-25T10:38:31.695Z,100676.53
2022-09-25T10:41:04.207Z,100676.09
2022-09-25T10:43:32.922Z,100672.28
2022-09-25T10:46:11.226Z,100675.75
2022-09-25T10:48:57.432Z,100677.66
2022-09-25T10:51:25.866Z,100671.53
2022-09-25T10:54:10.780Z,100659.47
2022-09-25T10:56:38.903Z,100669.06
2022-09-25T10:59:18.231Z,100663.78
2022-09-25T11:01:49.140Z,100663.63
2022-09-25T11:04:19.249Z,100667.00
2022-09-25T11:06:49.632Z,100673.06
2022-09-25T11:09:19.725Z,100663.16
2022-09-25T11:11:49.323Z,100670.19
2022-09-25T11:14:25.026Z,100664.91
2022-09-25T11:16:54.305Z,100667.16
2022-09-25T11:19:30.485Z,100665.91
2022-09-25T11:22:07.912Z,100662.06
2022-09-25T11:25:01.036Z,100658.06
2022-09-25T11:27:37.062Z,100652.25
2022-09-25T11:30:08.128Z,100660.13
2022-09-25T11:32:50.232Z,100651.03
2022-09-25T11:35:36.725Z,100651.66
2022-09-25T11:38:13.567Z,100649.16
2022-09-25T11:41:07.487Z,100640.28
2022-09-25T11:43:46.892Z,100640.31
2022-09-25T11:46:24.198Z,100632.72
2022-09-25T11:49:08.538Z,100632.81
2022-09-25T11:51:56.844Z,100629.41
2022-09-25T11:54:36.233Z,100635.34
2022-09-25T11:57:07.485Z,100629.41
2022-09-25T11:59:46.050Z,100624.94
2022-09-25T12:02:22.273Z,100628.34
2022-09-25T12:05:09.598Z,100625.38
2022-09-25T12:07:52.938Z,100615.09
2022-09-25T12:10:35.122Z,100615.75
2022-09-25T12:13:16.037Z,100617.41
2022-09-25T12:15:52.696Z,100619.78
2022-09-25T12:18:35.521Z,100609.81
2022-09-25T12:21:08.760Z,100608.09
2022-09-25T12:23:42.969Z,100603.69
2022-09-25T12:26:20.487Z,100609.28
2022-09-25T12:29:00.348Z,100605.69
2022-09-25T12:31:38.256Z,100601.53
2022-09-25T12:34:15.949Z,100598.44
2022-09-25T12:36:47.839Z,100604.22
2022-09-25T12:39:29.927Z,100600.44
2022-09-25T12:42:07.614Z,100591.56
2022-09-25T12:44:47.262Z,100595.03
2022-09-25T12:47:23.651Z,100592.13
2022-09-25T12:49:59.748Z,100590.63
2022-09-25T12:52:30.712Z,100590.44
2022-09-25T12:55:05.169Z,100598.22
2022-09-25T12:57:38.302Z,100587.31
2022-09-25T13:00:15.890Z,100588.56
2022-09-25T13:02:49.160Z,100581.97
2022-09-25T13:05:24.200Z,100573.19
2022-09-25T13:07:58.934Z,100571.06
2022-09-25T13:10:30.860Z,100574.97
2022-09-25T13:13:01.866Z,100572.16
2022-09-25T13:15:32.994Z,100571.56
2022-09-25T13:18:00.747Z,100578.81
2022-09-25T13:20:55.280Z,100571.31
2022-09-25T13:23:33.117Z,100577.25
2022-09-25T13:26:03.437Z,100577.09
2022-09-25T13:28:34.170Z,100571.75
2022-09-25T13:31:09.581Z,100571.78
2022-09-25T13:33:44.749Z,100571.84
2022-09-25T13:36:28.360Z,100564.78
2022-09-25T13:39:16.240Z,100563.94
2022-09-25T13:41:53.415Z,100557.66
2022-09-25T13:44:54.843Z,100566.41
2022-09-25T13:47:45.165Z,100556.44
2022-09-25T13:50:27.693Z,100556.66
2022-09-25T13:53:18.771Z,100549.66
2022-09-25T13:56:18.789Z,100542.59
2022-09-25T13:59:22.835Z,100543.69
2022-09-25T14:01:53.959Z,100547.13
2022-09-25T14:04:28.572Z,100543.84
2022-09-25T14:07:04.157Z,100541.53
2022-09-25T14:09:35.134Z,100545.16
2022-09-25T14:12:10.071Z,100537.38
2022-09-25T14:14:52.309Z,100538.84
2022-09-25T14:17:21.688Z,100538.22
2022-09-25T14:19:52.698Z,100538.84
2022-09-25T14:22:28.372Z,100540.34
2022-09-25T14:24:57.129Z,100533.59
2022-09-25T14:27:27.905Z,100533.91
2022-09-25T14:30:06.131Z,100535.50
2022-09-25T14:33:01.213Z,100524.75
2022-09-25T14:35:40.755Z,100517.41
2022-09-25T14:38:40.432Z,100522.06
2022-09-25T14:41:30.096Z,100515.03
2022-09-25T14:44:18.032Z,100519.56
2022-09-25T14:46:48.853Z,100525.94
2022-09-25T14:49:24.924Z,100521.41
2022-09-25T14:51:55.729Z,100520.31
2022-09-25T14:54:26.725Z,100516.34
2022-09-25T14:56:57.815Z,100516.94
2022-09-25T14:59:32.060Z,100504.75
2022-09-25T15:02:02.985Z,100510.38
2022-09-25T15:04:33.164Z,100510.03
2022-09-25T15:07:03.606Z,100510.09
2022-09-25T15:09:37.333Z,100517.50
2022-09-25T15:12:18.728Z,100513.16
2022-09-25T15:15:08.961Z,100504.03
2022-09-25T15:17:45.098Z,100513.53
2022-09-25T15:20:15.922Z,100518.00
2022-09-25T15:22:48.209Z,100515.63
2022-09-25T15:25:23.005Z,100504.50
2022-09-25T15:27:51.789Z,100506.88
2022-09-25T15:30:20.096Z,100503.00
2022-09-25T15:32:50.502Z,100499.09
2022-09-25T15:35:25.159Z,100501.56
2022-09-25T15:38:05.325Z,100500.94
2022-09-25T15:40:39.252Z,100502.41
2022-09-25T15:43:17.651Z,100502.88
2022-09-25T15:45:56.013Z,100501.81
2022-09-25T15:48:33.766Z,100495.25
2022-09-25T15:51:19.246Z,100494.91
2022-09-25T15:53:57.767Z,100496.81
2022-09-25T15:56:35.978Z,100490.63
2022-09-25T15:59:16.607Z,100487.69
2022-09-25T16:02:05.965Z,100495.63
2022-09-25T16:04:49.901Z,100498.19
2022-09-25T16:07:31.964Z,100491.75
2022-09-25T16:10:18.422Z,100488.50
2022-09-25T16:12:49.412Z,100489.59
2022-09-25T16:15:48.668Z,100482.06
2022-09-25T16:18:48.576Z,100476.63
2022-09-25T16:21:35.038Z,100479.03
2022-09-25T16:24:22.471Z,100475.81
2022-09-25T16:27:01.895Z,100488.66
2022-09-25T16:29:37.354Z,100481.09
2022-09-25T16:32:17.999Z,100489.16
2022-09-25T16:35:09.055Z,100482.38
2022-09-25T16:37:38.056Z,100486.00
2022-09-25T16:40:26.719Z,100491.72
2022-09-25T16:43:07.788Z,100491.59
2022-09-25T16:45:38.098Z,100487.81
2022-09-25T16:48:31.052Z,100496.31
2022-09-25T16:51:06.467Z,100495.56
2022-09-25T16:53:40.673Z,100493.69
2022-09-25T16:56:11.308Z,100497.34
2022-09-25T16:58:40.283Z,100477.47
2022-09-25T17:01:12.149Z,100484.72
2022-09-25T17:03:51.116Z,100491.00
2022-09-25T17:06:19.900Z,100485.09
2022-09-25T17:08:51.554Z,100480.56
2022-09-25T17:11:24.259Z,100485.34
2022-09-25T17:13:55.097Z,100484.41
2022-09-25T17:16:26.439Z,100479.78
2022-09-25T17:19:01.195Z,100478.16
2022-09-25T17:21:35.649Z,100465.66
2022-09-25T17:24:07.403Z,100462.53
2022-09-25T17:26:37.111Z,100466.81
2022-09-25T17:29:07.307Z,100467.66
2022-09-25T17:31:37.712Z,100476.97
2022-09-25T17:34:17.471Z,100473.94
2022-09-25T17:36:45.990Z,100469.84
2022-09-25T17:39:18.971Z,100473.19
2022-09-25T17:41:47.871Z,100479.31
2022-09-25T17:44:21.551Z,100481.81
2022-09-25T17:46:52.166Z,100486.88
2022-09-25T17:49:28.771Z,100480.78
2022-09-25T17:52:00.221Z,100486.28
2022-09-25T17:54:31.378Z,100478.66
2022-09-25T17:57:01.800Z,100490.13
2022-09-25T17:59:33.351Z,100495.38
2022-09-25T18:02:04.306Z,100497.44
2022-09-25T18:04:40.503Z,100493.84
2022-09-25T18:07:10.258Z,100490.63
2022-09-25T18:09:42.940Z,100489.59
2022-09-25T18:12:19.918Z,100490.16
2022-09-25T18:14:48.532Z,100496.97
2022-09-25T18:17:17.493Z,100491.50
2022-09-25T18:20:04.281Z,100494.09
2022-09-25T18:22:32.991Z,100496.59
2022-09-25T18:25:05.681Z,100490.75
2022-09-25T18:27:39.787Z,100497.59
2022-09-25T18:30:09.196Z,100488.56
2022-09-25T18:32:39.505Z,100495.69
2022-09-25T18:35:14.348Z,100488.38
2022-09-25T18:37:46.511Z,100486.66
2022-09-25T18:40:18.033Z,100487.66
2022-09-25T18:42:50.480Z,100487.31
2022-09-25T18:45:22.037Z,100483.28
2022-09-25T18:47:56.205Z,100491.59
2022-09-25T18:50:30.729Z,100482.41
2022-09-25T18:53:03.194Z,100489.28
2022-09-25T18:55:33.518Z,100485.63
2022-09-25T18:58:07.026Z,100488.94
2022-09-25T19:00:41.959Z,100490.75
2022-09-25T19:03:15.472Z,100481.72
2022-09-25T19:05:59.187Z,100491.38
2022-09-25T19:08:31.095Z,100491.47
2022-09-25T19:10:59.655Z,100487.47
2022-09-25T19:13:29.162Z,100486.22
2022-09-25T19:16:01.391Z,100478.13
2022-09-25T19:18:34.504Z,100485.00
2022-09-25T19:21:04.317Z,100483.16
2022-09-25T19:23:38.613Z,100486.75
2022-09-25T19:26:13.544Z,100491.19
2022-09-25T19:28:44.405Z,100490.81
2022-09-25T19:31:18.619Z,100485.34
2022-09-25T19:33:50.249Z,100483.03
2022-09-25T19:36:36.481Z,100473.91
2022-09-25T19:39:06.039Z,100469.09
2022-09-25T19:41:40.340Z,100474.09
2022-09-25T19:44:20.497Z,100476.66
2022-09-25T19:46:49.061Z,100476.81
2022-09-25T19:49:31.135Z,100478.66
2022-09-25T19:52:00.900Z,100481.66
2022-09-25T19:54:29.892Z,100473.59
2022-09-25T19:56:59.957Z,100468.81
2022-09-25T19:59:30.045Z,100464.69
2022-09-25T20:02:01.737Z,100464.53
2022-09-25T20:04:36.322Z,100467.53
2022-09-25T20:07:17.441Z,100463.69
2022-09-25T20:09:46.781Z,100462.03
2022-09-25T20:12:22.429Z,100459.16
2022-09-25T20:15:00.946Z,100468.03
2022-09-25T20:17:30.508Z,100468.34
2022-09-25T20:20:02.718Z,100472.28
2022-09-25T20:22:37.752Z,100475.13
2022-09-25T20:25:11.356Z,100468.75
2022-09-25T20:27:40.621Z,100461.47
2022-09-25T20:30:10.375Z,100461.91
2022-09-25T20:32:40.926Z,100445.53
2022-09-25T20:35:09.747Z,100451.53
2022-09-25T20:37:40.821Z,100450.81
2022-09-25T20:40:09.929Z,100448.97
2022-09-25T20:42:38.392Z,100444.16
2022-09-25T20:45:07.765Z,100444.91
2022-09-25T20:47:36.570Z,100446.91
2022-09-25T20:50:05.958Z,100452.13
2022-09-25T20:52:40.181Z,100446.81
2022-09-25T20:55:09.490Z,100445.59
2022-09-25T20:57:37.751Z,100443.47
2022-09-25T21:00:06.509Z,100434.63
2022-09-25T21:02:36.345Z,100439.63
2022-09-25T21:05:09.508Z,100437.19
2022-09-25T21:07:57.379Z,100441.19
2022-09-25T21:10:34.723Z,100442.31
2022-09-25T21:13:16.991Z,100437.03
2022-09-25T21:15:48.127Z,100436.97
2022-09-25T21:18:16.641Z,100440.50
2022-09-25T21:20:44.883Z,100432.25
2022-09-25T21:23:14.581Z,100430.91
2022-09-25T21:25:42.898Z,100435.84
2022-09-25T21:28:11.251Z,100435.13
2022-09-25T21:30:47.038Z,100433.34
2022-09-25T21:33:18.438Z,100423.38
2022-09-25T21:35:51.673Z,100425.00
2022-09-25T21:38:21.446Z,100429.66
2022-09-25T21:40:57.746Z,100425.34
2022-09-25T21:43:27.932Z,100425.59
2022-09-25T21:46:03.167Z,100417.03
2022-09-25T21:48:49.043Z,100417.69
2022-09-25T21:51:28.452Z,100412.03
2022-09-25T21:54:02.497Z,100416.94
2022-09-25T21:56:38.257Z,100408.59
2022-09-25T21:59:09.885Z,100412.66
2022-09-25T22:01:42.545Z,100407.88
2022-09-25T22:04:15.364Z,100416.34
2022-09-25T22:06:56.463Z,100412.22
2022-09-25T22:09:27.860Z,100405.63
2022-09-25T22:11:56.469Z,100406.13
2022-09-25T22:14:25.265Z,100410.56
2022-09-25T22:16:56.301Z,100412.72
2022-09-25T22:19:35.636Z,100423.69
2022-09-25T22:22:09.863Z,100410.59
2022-09-25T22:24:38.582Z,100413.94
2022-09-25T22:27:05.971Z,100421.94
2022-09-25T22:29:37.301Z,100423.69
2022-09-25T22:32:04.825Z,100416.47
2022-09-25T22:34:32.340Z,100402.75
2022-09-25T22:37:00.511Z,100403.69
2022-09-25T22:39:29.459Z,100409.28
2022-09-25T22:41:58.803Z,100400.28
2022-09-25T22:44:26.578Z,100395.53
2022-09-25T22:46:53.986Z,100393.31
2022-09-25T22:49:21.382Z,100396.50
2022-09-25T22:51:48.955Z,100392.41
2022-09-25T22:54:16.813Z,100389.75
2022-09-25T22:56:44.430Z,100393.00
2022-09-25T22:59:17.974Z,100403.47
2022-09-25T23:01:48.490Z,100391.34
2022-09-25T23:04:18.053Z,100386.31
2022-09-25T23:06:46.140Z,100384.63
2022-09-25T23:09:16.489Z,100385.72
2022-09-25T23:11:45.729Z,100388.94
2022-09-25T23:14:17.065Z,100391.50
2022-09-25T23:16:45.050Z,100392.75
2022-09-25T23:19:13.171Z,100388.59
2022-09-25T23:21:40.652Z,100387.41
2022-09-25T23:24:12.040Z,100391.00
2022-09-25T23:26:39.842Z,100395.31
2022-09-25T23:29:07.212Z,100387.53
2022-09-25T23:31:36.919Z,100385.28
2022-09-25T23:34:04.515Z,100391.66
2022-09-25T23:36:32.154Z,100385.97
2022-09-25T23:39:01.250Z,100385.50
2022-09-25T23:41:30.507Z,100383.97
2022-09-25T23:43:59.124Z,100383.34
2022-09-25T23:46:28.720Z,100385.47
2022-09-25T23:48:58.127Z,100374.34
2022-09-25T23:51:27.200Z,100378.50
2022-09-25T23:53:55.860Z,100375.09
2022-09-25T23:56:25.223Z,100371.47
2022-09-25T23:58:53.249Z,100366.81
